Time;durP1;ratioP1;P1;durP2;ratioP2;P2;SDS_P1;SDS_P2;PMS_P1;PMS_P2;Temp;Humidity;BMP_temperature;BMP_pressure;BME280_temperature;BME280_humidity;BME280_pressure;Samples;Min_cycle;Max_cycle;Signal;HPM_P1;HPM_P2
2022/04/02 00:01:57;;;;;;;6.03;2.98;;;20.30;99.30;;;;;;1892528;74;21079;-84
2022/04/02 00:04:28;;;;;;;6.67;3.20;;;20.30;98.90;;;;;;1899934;75;21110;-84
2022/04/02 00:06:59;;;;;;;6.65;3.67;;;20.20;99.40;;;;;;1897779;74;21127;-84
2022/04/02 00:09:30;;;;;;;3.12;1.50;;;20.30;99.60;;;;;;1895190;74;21131;-83
2022/04/02 00:12:02;;;;;;;3.30;0.90;;;20.30;99.40;;;;;;1889705;74;21250;-84
2022/04/02 00:14:36;;;;;;;2.15;0.78;;;20.30;99.40;;;;;;1891981;74;21084;-85
2022/04/02 00:17:07;;;;;;;2.90;0.75;;;20.30;98.70;;;;;;1875756;74;21184;-84
2022/04/02 00:19:38;;;;;;;2.60;0.70;;;20.30;98.60;;;;;;1876414;74;21205;-84
2022/04/02 00:22:09;;;;;;;4.00;1.72;;;20.20;98.50;;;;;;1884470;74;21072;-84
2022/04/02 00:24:42;;;;;;;7.80;3.27;;;20.20;98.50;;;;;;1892249;74;21220;-83
2022/04/02 00:27:16;;;;;;;2.83;0.75;;;20.20;98.50;;;;;;1897991;74;21069;-83
2022/04/02 00:29:46;;;;;;;2.27;0.68;;;20.20;98.50;;;;;;1899183;75;21650;-82
2022/04/02 00:32:17;;;;;;;2.27;0.65;;;20.20;98.60;;;;;;1892527;75;21163;-83
2022/04/02 00:34:52;;;;;;;1.77;0.60;;;20.20;98.40;;;;;;1892610;75;21051;-82
2022/04/02 00:37:27;;;;;;;10.40;1.05;;;20.10;98.50;;;;;;1899779;74;21135;-84
2022/04/02 00:40:01;;;;;;;2.62;0.60;;;20.10;98.60;;;;;;1891291;75;21091;-84
2022/04/02 00:42:32;;;;;;;1.85;0.40;;;20.00;98.80;;;;;;1900076;74;21587;-83
2022/04/02 00:45:06;;;;;;;3.35;0.80;;;20.00;98.90;;;;;;1895795;75;21169;-82
2022/04/02 00:47:37;;;;;;;1.85;0.55;;;20.00;99.10;;;;;;1892362;75;21581;-82
2022/04/02 00:50:08;;;;;;;1.80;0.40;;;20.00;99.40;;;;;;1886109;75;21246;-80
2022/04/02 00:52:42;;;;;;;2.27;1.10;;;20.00;99.80;;;;;;1892908;75;21154;-83
2022/04/02 00:55:12;;;;;;;1.90;0.70;;;20.00;99.80;;;;;;1893423;75;21133;-81
2022/04/02 00:57:43;;;;;;;3.55;0.60;;;20.10;99.70;;;;;;1885795;75;21592;-83
2022/04/02 01:00:15;;;;;;;1.98;0.50;;;20.10;99.40;;;;;;1867252;76;21149;-84
2022/04/02 01:02:46;;;;;;;3.85;0.50;;;20.10;99.20;;;;;;1896773;75;21192;-82
2022/04/02 01:05:17;;;;;;;2.12;0.45;;;20.20;99.10;;;;;;1895685;75;21580;-82
2022/04/02 01:07:49;;;;;;;1.12;0.50;;;20.10;99.90;;;;;;1898594;75;21116;-82
2022/04/02 01:10:19;;;;;;;1.50;0.50;;;20.20;99.70;;;;;;1900718;75;21148;-83
2022/04/02 01:12:51;;;;;;;1.82;0.80;;;20.20;99.60;;;;;;1892368;75;21092;-83
2022/04/02 01:15:21;;;;;;;2.92;0.60;;;20.20;99.60;;;;;;1899296;75;21147;-83
2022/04/02 01:17:53;;;;;;;2.42;0.80;;;20.20;99.60;;;;;;1888085;75;21191;-83
2022/04/02 01:20:25;;;;;;;1.27;0.50;;;20.20;99.60;;;;;;1874995;76;21602;-82
2022/04/02 01:22:56;;;;;;;3.27;0.68;;;20.20;99.50;;;;;;1895126;75;21096;-82
2022/04/02 01:25:31;;;;;;;1.70;0.50;;;20.20;99.70;;;;;;1872710;76;21195;-81
2022/04/02 01:28:01;;;;;;;3.77;0.70;;;20.30;99.80;;;;;;1881466;75;21190;-82
2022/04/02 01:30:32;;;;;;;1.10;0.40;;;20.30;99.30;;;;;;1896628;75;21084;-82
2022/04/02 01:33:04;;;;;;;2.50;0.55;;;20.30;99.20;;;;;;1891245;74;21087;-81
2022/04/02 01:35:35;;;;;;;2.87;0.72;;;20.30;98.90;;;;;;1860253;77;21573;-82
2022/04/02 01:38:09;;;;;;;2.08;0.50;;;20.30;98.70;;;;;;1859344;77;21146;-80
2022/04/02 01:40:40;;;;;;;1.67;0.50;;;20.20;98.90;;;;;;1846508;76;21721;-82
2022/04/02 01:43:11;;;;;;;1.82;0.53;;;20.20;98.90;;;;;;1845823;76;21146;-82
2022/04/02 01:45:43;;;;;;;2.02;0.50;;;20.20;99.20;;;;;;1871599;76;21589;-82
2022/04/02 01:48:15;;;;;;;3.47;0.50;;;20.10;99.40;;;;;;1855807;76;21171;-82
2022/04/02 01:50:47;;;;;;;5.60;2.30;;;20.10;99.30;;;;;;1858835;76;21072;-82
2022/04/02 01:53:19;;;;;;;2.35;1.00;;;20.10;99.50;;;;;;1847075;77;21159;-82
2022/04/02 01:55:52;;;;;;;2.15;0.50;;;20.10;99.40;;;;;;1853917;76;21171;-83
2022/04/02 01:58:23;;;;;;;0.93;0.55;;;20.10;99.30;;;;;;1852351;77;21155;-83
2022/04/02 02:00:54;;;;;;;1.60;0.62;;;20.10;99.30;;;;;;1852978;77;21556;-81
2022/04/02 02:03:26;;;;;;;3.02;0.82;;;20.10;99.40;;;;;;1842885;75;21568;-82
2022/04/02 02:05:57;;;;;;;2.87;0.70;;;20.10;99.40;;;;;;1854263;76;21160;-82
2022/04/02 02:08:29;;;;;;;2.35;0.35;;;20.10;99.40;;;;;;1850216;75;21100;-81
2022/04/02 02:11:00;;;;;;;1.95;0.80;;;20.10;99.40;;;;;;1849701;77;21167;-83
2022/04/02 02:13:31;;;;;;;1.95;0.70;;;20.10;99.20;;;;;;1848914;76;21088;-82
2022/04/02 02:16:02;;;;;;;1.50;0.50;;;20.10;98.90;;;;;;1846928;75;21095;-84
2022/04/02 02:18:33;;;;;;;2.65;0.70;;;20.10;99.60;;;;;;1849095;77;21517;-83
2022/04/02 02:21:05;;;;;;;1.35;0.50;;;20.10;99.60;;;;;;1850473;76;21225;-84
2022/04/02 02:23:35;;;;;;;1.77;0.60;;;20.20;98.70;;;;;;1850674;76;21218;-84
2022/04/02 02:26:06;;;;;;;2.42;0.70;;;20.20;98.40;;;;;;1852221;75;21585;-83
2022/04/02 02:28:37;;;;;;;1.75;0.65;;;20.20;98.30;;;;;;1860256;77;21188;-83
2022/04/02 02:31:08;;;;;;;1.82;0.50;;;20.20;98.20;;;;;;1856324;77;21120;-82
2022/04/02 02:36:15;;;;;;;2.27;0.80;;;20.20;98.80;;;;;;1867163;75;21170;-82
2022/04/02 02:38:47;;;;;;;2.15;0.60;;;20.20;98.10;;;;;;1866549;75;21060;-84
2022/04/02 02:41:18;;;;;;;2.85;0.70;;;20.20;98.20;;;;;;1886985;75;21190;-84
2022/04/02 02:43:49;;;;;;;2.45;0.50;;;20.30;98.30;;;;;;1864229;75;21477;-85
2022/04/02 02:46:19;;;;;;;2.62;0.40;;;20.30;98.10;;;;;;1827118;77;21094;-85
2022/04/02 02:48:51;;;;;;;0.82;0.30;;;20.30;97.90;;;;;;1865733;75;21579;-83
2022/04/02 02:51:22;;;;;;;1.65;0.30;;;20.30;97.90;;;;;;1815505;78;21111;-84
2022/04/02 02:53:53;;;;;;;0.55;0.20;;;20.30;97.70;;;;;;1825047;78;21103;-84
2022/04/02 02:56:24;;;;;;;1.25;0.40;;;20.30;97.70;;;;;;1827133;77;21039;-84
2022/04/02 02:58:55;;;;;;;2.10;0.30;;;20.30;97.90;;;;;;1837233;76;21150;-83
2022/04/02 03:01:26;;;;;;;1.12;0.47;;;20.30;97.60;;;;;;1871561;75;21627;-84
2022/04/02 03:03:57;;;;;;;3.02;0.50;;;20.30;97.80;;;;;;1825290;78;21591;-83
2022/04/02 03:06:28;;;;;;;2.70;0.45;;;20.30;98.10;;;;;;1827210;75;21094;-82
2022/04/02 03:08:59;;;;;;;2.40;0.50;;;20.40;98.20;;;;;;1839566;76;21151;-83
2022/04/02 03:11:30;;;;;;;5.40;0.50;;;20.40;97.80;;;;;;1865839;76;21100;-84
2022/04/02 03:14:02;;;;;;;0.72;0.25;;;20.50;97.60;;;;;;1860202;75;21138;-85
2022/04/02 03:16:33;;;;;;;1.75;0.40;;;20.40;97.50;;;;;;1865385;75;21052;-84
2022/04/02 03:19:06;;;;;;;2.47;0.55;;;20.50;97.40;;;;;;1863063;75;21540;-83
2022/04/02 03:21:36;;;;;;;1.32;0.50;;;20.50;97.20;;;;;;1857441;75;21151;-85
2022/04/02 03:24:07;;;;;;;1.82;0.68;;;20.40;97.30;;;;;;1859958;76;21182;-84
2022/04/02 03:26:39;;;;;;;3.15;0.75;;;20.40;97.30;;;;;;1863165;75;21589;-84
2022/04/02 03:29:10;;;;;;;1.67;0.60;;;20.50;97.60;;;;;;1845683;76;21155;-84
2022/04/02 03:31:40;;;;;;;2.83;0.93;;;20.60;97.40;;;;;;1863596;75;21187;-84
2022/04/02 03:34:12;;;;;;;1.20;0.60;;;20.60;97.40;;;;;;1860832;75;21230;-85
2022/04/02 03:36:44;;;;;;;2.87;0.98;;;20.70;97.10;;;;;;1886157;75;21233;-84
2022/04/02 03:39:17;;;;;;;2.30;0.50;;;20.70;96.80;;;;;;1887996;74;21171;-85
2022/04/02 03:41:53;;;;;;;1.70;0.50;;;20.70;96.60;;;;;;1883510;75;21135;-85
2022/04/02 03:44:22;;;;;;;1.87;0.50;;;20.70;96.80;;;;;;1877192;75;21184;-84
2022/04/02 03:49:27;;;;;;;4.00;0.65;;;20.80;96.30;;;;;;1884814;74;21237;-84
2022/04/02 03:51:58;;;;;;;1.47;0.37;;;20.80;96.10;;;;;;1900461;75;21072;-84
2022/04/02 03:54:29;;;;;;;1.22;0.40;;;20.80;96.00;;;;;;1904268;74;21159;-84
2022/04/02 03:57:00;;;;;;;3.12;0.50;;;20.80;96.10;;;;;;1841913;76;21150;-84
2022/04/02 03:59:34;;;;;;;1.40;0.60;;;20.80;96.10;;;;;;1868062;75;21081;-84
2022/04/02 04:02:05;;;;;;;3.37;0.50;;;20.80;96.00;;;;;;1856008;75;21093;-83
2022/04/02 04:04:41;;;;;;;2.83;0.53;;;20.80;95.80;;;;;;1822749;77;21529;-82
2022/04/02 04:07:12;;;;;;;2.58;1.00;;;20.80;96.10;;;;;;1866888;75;21211;-83
2022/04/02 04:09:43;;;;;;;1.15;0.50;;;20.70;96.10;;;;;;1897406;75;21683;-83
2022/04/02 04:12:14;;;;;;;2.08;0.50;;;20.70;96.20;;;;;;1869395;76;21127;-82
2022/04/02 04:14:46;;;;;;;2.83;0.62;;;20.70;96.30;;;;;;1895413;74;21534;-81
2022/04/02 04:17:17;;;;;;;3.67;0.70;;;20.70;96.30;;;;;;1889659;74;21641;-82
2022/04/02 04:19:49;;;;;;;2.33;0.68;;;20.70;96.20;;;;;;1893853;74;21156;-82
2022/04/02 04:22:20;;;;;;;2.55;0.60;;;20.70;96.00;;;;;;1878960;74;21075;-82
2022/04/02 04:24:51;;;;;;;2.85;0.40;;;20.80;96.20;;;;;;1885558;75;21111;-82
2022/04/02 04:27:22;;;;;;;1.92;0.50;;;20.80;95.80;;;;;;1882974;75;21086;-82
2022/04/02 04:29:53;;;;;;;4.05;0.80;;;20.80;95.60;;;;;;1883416;75;21607;-82
2022/04/02 04:32:24;;;;;;;1.95;0.62;;;20.80;95.60;;;;;;1886982;75;21091;-83
2022/04/02 04:34:55;;;;;;;3.55;0.53;;;20.90;96.00;;;;;;1892619;75;21146;-83
2022/04/02 04:37:26;;;;;;;2.75;0.80;;;20.90;95.70;;;;;;1908310;74;21079;-82
2022/04/02 04:39:57;;;;;;;1.87;0.70;;;21.00;95.90;;;;;;1896074;74;21136;-81
2022/04/02 04:42:29;;;;;;;4.92;0.70;;;21.00;95.90;;;;;;1899093;74;21105;-82
2022/04/02 04:45:00;;;;;;;1.85;0.55;;;21.00;96.00;;;;;;1875718;75;21058;-82
2022/04/02 04:47:31;;;;;;;3.72;0.90;;;20.90;95.90;;;;;;1882492;75;21068;-81
2022/04/02 04:50:03;;;;;;;1.62;0.72;;;20.80;96.20;;;;;;1890835;74;21107;-83
2022/04/02 04:52:34;;;;;;;2.45;0.75;;;20.80;96.10;;;;;;1899851;74;21080;-82
2022/04/02 04:55:06;;;;;;;2.42;1.00;;;20.80;96.20;;;;;;1896595;73;21154;-82
2022/04/02 04:57:38;;;;;;;1.85;0.70;;;20.70;96.20;;;;;;1893664;74;21122;-81
2022/04/02 05:00:09;;;;;;;3.30;0.70;;;20.70;96.50;;;;;;1896173;74;21596;-82
2022/04/02 05:02:44;;;;;;;3.30;0.50;;;20.80;97.00;;;;;;1887837;74;21077;-83
2022/04/02 05:05:13;;;;;;;3.62;0.72;;;20.80;96.80;;;;;;1891349;74;21521;-83
2022/04/02 05:07:46;;;;;;;1.15;0.50;;;20.80;97.00;;;;;;1879480;74;21204;-84
2022/04/02 05:10:17;;;;;;;2.33;0.65;;;20.80;97.20;;;;;;1889256;75;21098;-83
2022/04/02 05:12:48;;;;;;;3.75;1.00;;;20.90;97.00;;;;;;1896325;74;21092;-82
2022/04/02 05:15:20;;;;;;;2.15;1.00;;;20.90;97.00;;;;;;1889839;74;21205;-83
2022/04/02 05:17:50;;;;;;;3.58;1.22;;;21.00;96.70;;;;;;1890811;74;21118;-82
2022/04/02 05:20:22;;;;;;;1.15;0.40;;;21.00;96.70;;;;;;1898301;74;21135;-83
2022/04/02 05:22:53;;;;;;;0.75;0.40;;;21.00;97.10;;;;;;1884279;74;21097;-83
2022/04/02 05:25:26;;;;;;;1.22;0.50;;;21.00;97.00;;;;;;1888868;74;21226;-84
2022/04/02 05:27:57;;;;;;;1.22;0.70;;;21.00;97.00;;;;;;1883948;75;21133;-82
2022/04/02 05:30:28;;;;;;;2.83;0.80;;;21.00;97.10;;;;;;1886872;75;21713;-82
2022/04/02 05:32:59;;;;;;;2.12;0.80;;;21.10;96.90;;;;;;1887352;75;21142;-82
2022/04/02 05:35:30;;;;;;;4.87;1.00;;;21.10;96.70;;;;;;1888632;75;21151;-81
2022/04/02 05:38:04;;;;;;;3.15;0.95;;;21.10;96.80;;;;;;1877407;76;21140;-82
2022/04/02 05:40:38;;;;;;;2.80;0.57;;;21.00;97.00;;;;;;1871717;76;21143;-82
2022/04/02 05:43:09;;;;;;;1.82;0.88;;;21.00;96.90;;;;;;1875151;76;21124;-83
2022/04/02 05:45:41;;;;;;;2.70;1.50;;;21.00;97.10;;;;;;1869133;76;21610;-83
2022/04/02 05:48:12;;;;;;;1.65;0.80;;;21.00;97.20;;;;;;1877542;75;21586;-81
2022/04/02 05:50:44;;;;;;;3.08;1.45;;;21.00;97.40;;;;;;1882404;75;21092;-82
2022/04/02 05:53:15;;;;;;;4.03;0.80;;;21.00;97.30;;;;;;1876179;74;21207;-83
2022/04/02 05:55:47;;;;;;;1.35;0.60;;;21.00;97.50;;;;;;1883495;75;21629;-82
2022/04/02 05:58:18;;;;;;;2.92;0.80;;;21.00;97.60;;;;;;1892126;76;21156;-83
2022/04/02 06:00:51;;;;;;;1.70;0.50;;;21.00;97.60;;;;;;1884777;75;21120;-83
2022/04/02 06:03:22;;;;;;;1.62;0.80;;;21.00;97.70;;;;;;1882296;74;21248;-83
2022/04/02 06:05:53;;;;;;;1.65;0.80;;;21.00;97.80;;;;;;1886479;74;21876;-83
2022/04/02 06:08:26;;;;;;;2.25;0.90;;;21.10;98.10;;;;;;1877058;74;21092;-84
2022/04/02 06:11:01;;;;;;;2.65;1.17;;;21.20;97.70;;;;;;1891284;75;21122;-83
2022/04/02 06:13:34;;;;;;;1.30;0.60;;;21.30;97.70;;;;;;1883489;76;21524;-83
2022/04/02 06:16:06;;;;;;;3.05;1.25;;;21.30;97.40;;;;;;1890380;76;21556;-82
2022/04/02 06:18:37;;;;;;;1.90;0.90;;;21.40;97.40;;;;;;1814655;78;21099;-83
2022/04/02 06:21:08;;;;;;;1.85;0.82;;;21.40;97.20;;;;;;1897602;75;21646;-82
2022/04/02 06:23:40;;;;;;;3.12;0.93;;;21.50;97.10;;;;;;1897429;74;21152;-83
2022/04/02 06:26:11;;;;;;;3.52;1.17;;;21.50;96.90;;;;;;1893256;74;21054;-84
2022/04/02 06:28:43;;;;;;;6.22;1.00;;;21.50;97.30;;;;;;1886479;75;21251;-84
2022/04/02 06:31:14;;;;;;;2.55;0.70;;;21.60;96.90;;;;;;1911771;75;21103;-84
2022/04/02 06:33:45;;;;;;;3.45;0.90;;;21.60;96.80;;;;;;1883669;75;21068;-84
2022/04/02 06:36:25;;;;;;;2.55;0.70;;;21.70;96.70;;;;;;1903089;74;21076;-83
2022/04/02 06:38:56;;;;;;;1.67;0.82;;;21.70;97.20;;;;;;1890356;74;21157;-84
2022/04/02 06:41:29;;;;;;;3.33;0.80;;;21.70;96.60;;;;;;1815191;77;21152;-83
2022/04/02 06:44:01;;;;;;;1.92;0.88;;;21.70;96.60;;;;;;1820432;76;21133;-84
2022/04/02 06:46:32;;;;;;;2.55;1.40;;;21.70;96.80;;;;;;1870060;75;21661;-83
2022/04/02 06:49:03;;;;;;;2.42;1.30;;;21.60;96.30;;;;;;1838982;77;21118;-83
2022/04/02 06:51:35;;;;;;;3.20;0.80;;;21.60;96.40;;;;;;1846724;77;21120;-85
2022/04/02 06:54:07;;;;;;;2.85;1.35;;;21.60;96.30;;;;;;1841691;77;21560;-84
2022/04/02 06:56:38;;;;;;;2.12;1.05;;;21.60;96.40;;;;;;1886716;74;21077;-85
2022/04/02 06:59:09;;;;;;;3.20;0.90;;;21.60;96.30;;;;;;1892539;74;21527;-81
2022/04/02 07:01:40;;;;;;;2.65;0.80;;;21.50;96.70;;;;;;1884446;74;21213;-70
2022/04/02 07:04:11;;;;;;;2.40;0.80;;;21.50;97.00;;;;;;1893380;74;21152;-73
2022/04/02 07:06:44;;;;;;;2.37;0.80;;;21.50;97.00;;;;;;1887205;74;21536;-72
2022/04/02 07:09:16;;;;;;;1.52;1.00;;;21.60;96.70;;;;;;1808665;78;21560;-72
2022/04/02 07:11:47;;;;;;;3.65;1.22;;;21.60;96.40;;;;;;1839125;78;21563;-71
2022/04/02 07:14:17;;;;;;;3.15;1.67;;;21.60;96.50;;;;;;1810031;79;21149;-71
2022/04/02 07:16:49;;;;;;;2.33;1.10;;;21.60;96.40;;;;;;1878323;75;21534;-71
2022/04/02 07:19:22;;;;;;;4.00;1.17;;;21.60;96.50;;;;;;1878403;74;21112;-71
2022/04/02 07:21:54;;;;;;;2.62;1.10;;;21.60;96.60;;;;;;1883627;74;21532;-71
2022/04/02 07:24:25;;;;;;;4.28;1.02;;;21.70;96.50;;;;;;1876579;75;21085;-73
2022/04/02 07:26:57;;;;;;;2.35;1.20;;;21.60;96.70;;;;;;1879114;75;21597;-73
2022/04/02 07:29:28;;;;;;;3.62;0.98;;;21.60;96.50;;;;;;1889125;75;22054;-72
2022/04/02 07:31:59;;;;;;;4.03;1.05;;;21.60;97.10;;;;;;1871187;74;21781;-72
2022/04/02 07:34:30;;;;;;;2.95;1.15;;;21.60;96.90;;;;;;1884226;74;21613;-72
2022/04/02 07:37:06;;;;;;;3.02;1.47;;;21.60;97.00;;;;;;1870119;75;21851;-73
2022/04/02 07:39:37;;;;;;;3.75;1.37;;;21.70;96.80;;;;;;1842371;76;21080;-73
2022/04/02 07:42:11;;;;;;;4.15;1.70;;;21.70;97.10;;;;;;1838691;76;21701;-72
2022/04/02 07:44:43;;;;;;;3.70;1.50;;;21.70;96.60;;;;;;1883755;75;21146;-73
2022/04/02 07:47:15;;;;;;;3.87;2.05;;;21.60;96.70;;;;;;1846118;76;21745;-73
2022/04/02 07:49:47;;;;;;;5.95;2.20;;;21.60;96.60;;;;;;1878192;74;21638;-73
2022/04/02 07:52:19;;;;;;;3.27;1.57;;;21.50;96.90;;;;;;1881282;75;21057;-72
2022/04/02 07:54:52;;;;;;;3.90;1.90;;;21.50;97.30;;;;;;1868784;75;21249;-72
2022/04/02 07:57:25;;;;;;;4.58;2.10;;;21.50;97.50;;;;;;1885636;74;21112;-72
2022/04/02 08:00:00;;;;;;;3.02;2.05;;;21.40;97.80;;;;;;1872939;74;21257;-72
2022/04/02 08:02:36;;;;;;;6.22;3.37;;;21.50;97.70;;;;;;1890040;75;21617;-72
2022/04/02 08:05:10;;;;;;;5.33;3.52;;;21.40;97.60;;;;;;1891243;75;21129;-72
2022/04/02 08:07:49;;;;;;;4.62;2.75;;;21.40;97.70;;;;;;1882103;74;21632;-73
2022/04/02 08:10:15;;;;;;;6.50;2.60;;;21.40;97.80;;;;;;1891018;75;21207;-72
2022/04/02 08:12:48;;;;;;;5.35;2.58;;;21.40;97.90;;;;;;1846864;77;21241;-72
2022/04/02 08:15:23;;;;;;;5.90;2.37;;;21.40;98.00;;;;;;1839363;77;21220;-71
2022/04/02 08:17:56;;;;;;;3.92;2.27;;;21.50;97.80;;;;;;1876615;75;21548;-71
2022/04/02 08:20:27;;;;;;;4.22;2.00;;;21.50;97.70;;;;;;1886396;75;21072;-73
2022/04/02 08:22:59;;;;;;;4.40;2.70;;;21.60;97.60;;;;;;1881992;74;21236;-72
2022/04/02 08:25:35;;;;;;;3.67;2.42;;;21.60;97.40;;;;;;1889670;74;21131;-72
2022/04/02 08:28:09;;;;;;;4.95;2.60;;;21.60;97.30;;;;;;1891245;74;21748;-72
2022/04/02 08:30:43;;;;;;;5.37;3.30;;;21.60;97.40;;;;;;1874129;74;21579;-72
2022/04/02 08:33:17;;;;;;;6.87;3.50;;;21.60;97.80;;;;;;1891879;75;21667;-72
2022/04/02 08:35:48;;;;;;;6.70;3.27;;;21.70;97.30;;;;;;1895101;74;21153;-72
2022/04/02 08:38:21;;;;;;;6.28;3.85;;;21.70;97.20;;;;;;1891234;74;21623;-72
2022/04/02 08:40:55;;;;;;;6.78;3.65;;;21.70;97.20;;;;;;1890298;74;21152;-72
2022/04/02 08:43:30;;;;;;;7.15;4.25;;;21.70;97.50;;;;;;1894090;74;21123;-72
2022/04/02 08:46:02;;;;;;;5.80;3.58;;;21.70;97.30;;;;;;1896490;75;21606;-71
2022/04/02 08:48:35;;;;;;;6.78;4.00;;;21.70;97.40;;;;;;1888177;74;21804;-73
2022/04/02 08:51:08;;;;;;;5.25;3.70;;;21.70;97.10;;;;;;1905347;74;21120;-72
2022/04/02 08:53:40;;;;;;;7.15;3.10;;;21.70;97.10;;;;;;1894941;74;21238;-72
2022/04/02 08:56:13;;;;;;;4.42;2.62;;;21.70;97.30;;;;;;1893788;74;21593;-73
2022/04/02 08:58:47;;;;;;;5.95;3.12;;;21.60;97.10;;;;;;1896454;74;21582;-72
2022/04/02 09:01:22;;;;;;;7.33;3.62;;;21.70;97.00;;;;;;1899608;74;21091;-71
2022/04/02 09:03:55;;;;;;;4.70;2.80;;;21.70;97.00;;;;;;1902201;74;21591;-72
2022/04/02 09:06:31;;;;;;;7.05;3.87;;;21.70;96.50;;;;;;1895198;74;21097;-73
2022/04/02 09:09:05;;;;;;;5.22;3.12;;;21.70;96.50;;;;;;1904838;74;21587;-72
2022/04/02 09:11:38;;;;;;;6.15;2.98;;;21.80;96.60;;;;;;1895666;74;21572;-72
2022/04/02 09:14:14;;;;;;;4.90;2.58;;;21.80;96.60;;;;;;1895032;75;21261;-72
2022/04/02 09:16:47;;;;;;;4.60;3.25;;;21.80;96.60;;;;;;1896847;74;21578;-73
2022/04/02 09:19:20;;;;;;;5.00;2.83;;;21.90;96.50;;;;;;1892566;74;21237;-72
2022/04/02 09:21:50;;;;;;;5.45;2.75;;;21.90;96.30;;;;;;1900465;74;21163;-72
2022/04/02 09:24:26;;;;;;;8.08;3.30;;;22.00;96.20;;;;;;1896357;74;21140;-73
2022/04/02 09:26:59;;;;;;;8.23;3.40;;;22.00;96.20;;;;;;1895008;75;21132;-71
2022/04/02 09:29:33;;;;;;;7.78;2.95;;;22.00;96.30;;;;;;1889243;75;21712;-71
2022/04/02 09:32:06;;;;;;;3.90;2.87;;;22.00;96.30;;;;;;1892524;74;21402;-72
2022/04/02 09:34:36;;;;;;;6.67;3.00;;;22.10;96.30;;;;;;1901809;75;21481;-71
2022/04/02 09:37:10;;;;;;;9.98;3.20;;;22.10;96.00;;;;;;1901760;75;21636;-70
2022/04/02 09:39:44;;;;;;;6.45;2.90;;;22.10;95.60;;;;;;1894446;74;21611;-71
2022/04/02 09:42:18;;;;;;;11.10;2.85;;;22.10;95.80;;;;;;1899061;75;21593;-71
2022/04/02 09:44:51;;;;;;;6.65;2.98;;;22.10;96.00;;;;;;1898438;74;21531;-71
2022/04/02 09:47:25;;;;;;;6.70;2.80;;;22.10;96.00;;;;;;1848975;75;21645;-72
2022/04/02 09:49:59;;;;;;;4.37;2.50;;;22.10;96.10;;;;;;1901394;74;21491;-72
2022/04/02 09:52:31;;;;;;;6.33;2.37;;;22.10;95.90;;;;;;1903370;74;21044;-72
2022/04/02 09:55:04;;;;;;;6.00;2.90;;;22.00;95.90;;;;;;1899426;74;21164;-72
2022/04/02 09:57:36;;;;;;;6.47;2.50;;;22.10;95.90;;;;;;1913509;74;21549;-73
2022/04/02 10:00:08;;;;;;;5.83;2.40;;;22.00;96.00;;;;;;1902947;74;21105;-72
2022/04/02 10:02:42;;;;;;;6.75;2.65;;;22.00;95.80;;;;;;1854839;75;21614;-74
2022/04/02 10:05:15;;;;;;;5.00;2.50;;;22.00;95.80;;;;;;1900377;74;21634;-73
2022/04/02 10:07:48;;;;;;;4.22;2.60;;;22.10;95.80;;;;;;1813633;76;21252;-81
2022/04/02 10:10:22;;;;;;;5.83;2.27;;;22.10;95.70;;;;;;1895472;73;21111;-81
2022/04/02 10:12:56;;;;;;;3.72;2.33;;;22.10;95.30;;;;;;1883346;75;21068;-82
2022/04/02 10:15:27;;;;;;;5.90;2.00;;;22.10;95.30;;;;;;1877700;75;21597;-82
2022/04/02 10:18:01;;;;;;;4.85;2.33;;;22.00;95.40;;;;;;1865944;75;21621;-82
2022/04/02 10:20:32;;;;;;;7.05;2.90;;;22.00;95.60;;;;;;1867344;75;21072;-81
2022/04/02 10:23:07;;;;;;;7.08;2.87;;;21.90;95.60;;;;;;1893980;75;21083;-81
2022/04/02 10:25:43;;;;;;;5.15;2.58;;;21.90;95.90;;;;;;1881859;75;21648;-82
2022/04/02 10:28:15;;;;;;;4.58;2.75;;;22.00;96.10;;;;;;1846538;76;21182;-82
2022/04/02 10:30:47;;;;;;;7.85;3.12;;;22.00;95.90;;;;;;1901429;75;21122;-83
2022/04/02 10:33:27;;;;;;;6.53;3.05;;;22.00;95.80;;;;;;1889043;75;21058;-82
2022/04/02 10:35:55;;;;;;;5.17;3.02;;;22.00;95.80;;;;;;1861122;76;21185;-82
2022/04/02 10:38:28;;;;;;;5.95;3.98;;;22.00;95.80;;;;;;1893914;75;21156;-83
2022/04/02 10:41:00;;;;;;;9.93;3.62;;;21.90;95.80;;;;;;1898377;75;21061;-83
2022/04/02 10:43:33;;;;;;;5.20;3.77;;;21.90;96.20;;;;;;1899668;75;21125;-82
2022/04/02 10:46:05;;;;;;;10.10;4.00;;;21.90;95.90;;;;;;1886617;75;21115;-82
2022/04/02 10:48:37;;;;;;;7.87;4.05;;;21.90;95.70;;;;;;1884315;75;21077;-82
2022/04/02 10:51:11;;;;;;;7.85;3.25;;;21.80;95.80;;;;;;1894438;75;21221;-82
2022/04/02 10:53:44;;;;;;;8.33;3.77;;;21.80;96.00;;;;;;1897592;75;21076;-81
2022/04/02 10:56:17;;;;;;;6.97;3.30;;;21.80;95.90;;;;;;1893325;75;21084;-82
2022/04/02 10:58:51;;;;;;;6.08;3.50;;;21.80;96.00;;;;;;1821622;78;21049;-82
2022/04/02 11:01:24;;;;;;;6.35;3.95;;;21.80;96.00;;;;;;1889961;75;21132;-82
2022/04/02 11:03:56;;;;;;;8.18;4.20;;;21.70;95.90;;;;;;1900372;75;21202;-81
2022/04/02 11:06:32;;;;;;;7.95;3.75;;;21.70;96.00;;;;;;1875153;75;21215;-82
2022/04/02 11:09:04;;;;;;;6.67;4.25;;;21.60;96.40;;;;;;1879203;75;21228;-81
2022/04/02 11:11:37;;;;;;;7.12;4.85;;;21.50;96.20;;;;;;1877567;76;21139;-82
2022/04/02 11:14:09;;;;;;;8.55;4.75;;;21.60;96.20;;;;;;1872892;75;21230;-81
2022/04/02 11:16:41;;;;;;;7.67;4.37;;;21.60;96.50;;;;;;1880390;76;21100;-81
2022/04/02 11:21:47;;;;;;;7.67;4.37;;;21.70;96.30;;;;;;1889003;75;21166;-81
2022/04/02 11:24:20;;;;;;;7.97;3.92;;;21.70;96.20;;;;;;1883551;75;21073;-81
2022/04/02 11:26:53;;;;;;;6.78;4.12;;;21.60;96.20;;;;;;1885384;75;21125;-81
2022/04/02 11:29:25;;;;;;;8.20;4.67;;;21.70;96.10;;;;;;1890233;75;21191;-80
2022/04/02 11:31:58;;;;;;;6.83;3.40;;;21.70;96.00;;;;;;1889811;75;21134;-81
2022/04/02 11:34:31;;;;;;;6.70;4.25;;;21.70;96.00;;;;;;1851998;75;21061;-81
2022/04/02 11:37:07;;;;;;;9.65;3.77;;;21.70;95.90;;;;;;1885409;75;21556;-82
2022/04/02 11:39:40;;;;;;;6.40;3.22;;;21.70;96.10;;;;;;1825767;78;21080;-82
2022/04/02 11:42:13;;;;;;;9.45;4.03;;;21.70;96.10;;;;;;1872524;75;21162;-81
2022/04/02 11:44:46;;;;;;;6.22;2.90;;;21.70;96.00;;;;;;1836449;76;21148;-81
2022/04/02 11:47:19;;;;;;;6.25;4.17;;;21.60;96.20;;;;;;1900157;75;21245;-82
2022/04/02 11:49:53;;;;;;;8.60;4.70;;;21.70;96.10;;;;;;1887681;75;21609;-81
2022/04/02 11:52:25;;;;;;;6.30;3.70;;;21.70;96.10;;;;;;1871941;75;21080;-80
2022/04/02 11:54:55;;;;;;;8.30;3.80;;;21.60;96.10;;;;;;1866488;75;21566;-81
2022/04/02 11:57:27;;;;;;;7.35;3.30;;;21.50;96.20;;;;;;1866829;76;21094;-82
2022/04/02 12:00:06;;;;;;;8.00;3.95;;;21.50;96.30;;;;;;1826748;77;21185;-82
2022/04/02 12:02:35;;;;;;;7.30;4.08;;;21.60;96.40;;;;;;1851462;76;21304;-82
2022/04/02 12:05:08;;;;;;;8.68;4.53;;;21.60;96.30;;;;;;1884750;75;21073;-82
2022/04/02 12:07:41;;;;;;;8.48;3.75;;;21.60;96.30;;;;;;1895822;75;21049;-83
2022/04/02 12:10:14;;;;;;;8.38;4.37;;;21.60;96.30;;;;;;1856544;76;21097;-81
2022/04/02 12:12:46;;;;;;;9.18;4.37;;;21.50;96.30;;;;;;1853415;76;21077;-82
2022/04/02 12:15:21;;;;;;;12.53;7.22;;;21.50;96.70;;;;;;1881975;75;21089;-81
2022/04/02 12:17:54;;;;;;;14.95;6.00;;;21.50;96.70;;;;;;1894335;74;21209;-82
2022/04/02 12:20:29;;;;;;;11.50;5.20;;;21.50;96.90;;;;;;1864941;75;21598;-82
2022/04/02 12:23:02;;;;;;;9.53;5.00;;;21.40;97.00;;;;;;1829656;78;21106;-82
2022/04/02 12:25:34;;;;;;;8.65;4.58;;;21.30;97.30;;;;;;1839902;78;21607;-83
2022/04/02 12:28:10;;;;;;;6.42;4.40;;;21.20;97.50;;;;;;1840964;77;21100;-82
2022/04/02 12:30:46;;;;;;;5.70;4.47;;;21.30;98.00;;;;;;1890180;75;21659;-82
2022/04/02 12:33:18;;;;;;;10.28;4.80;;;21.20;98.00;;;;;;1869165;75;21662;-82
2022/04/02 12:35:51;;;;;;;9.05;5.62;;;21.20;98.20;;;;;;1863475;75;21208;-82
2022/04/02 12:38:25;;;;;;;8.20;5.50;;;21.30;98.60;;;;;;1857573;75;21611;-83
2022/04/02 12:40:57;;;;;;;7.00;4.47;;;21.20;99.30;;;;;;1857428;76;21202;-83
2022/04/02 12:43:31;;;;;;;8.58;4.40;;;21.30;99.90;;;;;;1900061;75;21587;-82
2022/04/02 12:46:03;;;;;;;9.88;4.30;;;21.10;99.90;;;;;;1899660;75;21092;-82
2022/04/02 12:48:39;;;;;;;6.55;3.80;;;21.10;99.90;;;;;;1900011;75;21131;-82
2022/04/02 12:51:11;;;;;;;;;;;21.10;99.90;;;;;;1909440;75;21514;-84
2022/04/02 12:53:45;;;;;;;5.15;3.98;;;21.20;99.90;;;;;;1906825;75;20339;-82
2022/04/02 12:56:19;;;;;;;6.90;4.55;;;21.10;99.90;;;;;;1856693;75;21290;-81
2022/04/02 12:58:52;;;;;;;7.65;4.72;;;21.90;99.90;;;;;;1907022;75;21083;-82
2022/04/02 13:01:25;;;;;;;8.00;4.22;;;21.10;99.90;;;;;;1904760;75;21068;-82
2022/04/02 13:04:12;;;;;;;6.50;4.03;;;21.10;99.90;;;;;;1905023;74;21963;-82
2022/04/02 13:06:34;;;;;;;7.03;3.58;;;21.10;99.90;;;;;;1900755;75;21073;-82
2022/04/02 13:09:05;;;;;;;8.28;4.12;;;21.20;99.90;;;;;;1905771;74;21668;-83
2022/04/02 13:11:38;;;;;;;6.40;3.95;;;21.10;99.90;;;;;;1908894;75;21760;-82
2022/04/02 13:14:12;;;;;;;7.28;3.83;;;21.10;99.90;;;;;;1900168;75;21141;-81
2022/04/02 13:16:45;;;;;;;5.92;3.40;;;21.00;99.90;;;;;;1902800;75;21189;-83
2022/04/02 13:21:54;;;;;;;6.58;3.50;;;21.00;99.90;;;;;;1910298;75;21084;-82
2022/04/02 13:24:33;;;;;;;6.47;3.58;;;21.00;99.90;;;;;;1897286;75;21551;-84